createdAt,value
2022-12-18T00:01:36.156Z,98.03
2022-12-18T00:04:05.624Z,98.00
2022-12-18T00:06:33.905Z,101.50
2022-12-18T00:09:01.893Z,107.22
2022-12-18T00:11:30.975Z,104.40
2022-12-18T00:13:59.228Z,98.40
2022-12-18T00:16:27.490Z,110.57
2022-12-18T00:18:56.250Z,115.90
2022-12-18T00:21:23.464Z,119.57
2022-12-18T00:23:51.453Z,116.32
2022-12-18T00:26:20.961Z,110.68
2022-12-18T00:28:50.044Z,108.75
2022-12-18T00:31:19.801Z,112.70
2022-12-18T00:33:46.988Z,109.57
2022-12-18T00:36:18.883Z,121.35
2022-12-18T00:38:46.596Z,135.68
2022-12-18T00:41:35.148Z,116.15
2022-12-18T00:44:02.874Z,116.03
2022-12-18T00:46:29.850Z,125.22
2022-12-18T00:48:56.809Z,124.50
2022-12-18T00:51:24.122Z,125.85
2022-12-18T00:53:51.224Z,123.68
2022-12-18T00:56:18.148Z,126.18
2022-12-18T00:58:45.554Z,119.80
2022-12-18T01:01:12.584Z,101.13
2022-12-18T01:03:39.876Z,96.50
2022-12-18T01:06:09.663Z,94.00
2022-12-18T01:08:36.934Z,114.40
2022-12-18T01:11:12.804Z,98.18
2022-12-18T01:13:41.970Z,139.43
2022-12-18T01:16:10.095Z,132.60
2022-12-18T01:18:37.139Z,107.25
2022-12-18T01:21:12.578Z,94.97
2022-12-18T01:23:40.082Z,90.15
2022-12-18T01:26:09.175Z,93.82
2022-12-18T01:28:36.904Z,98.32
2022-12-18T01:31:25.213Z,103.28
2022-12-18T01:33:53.034Z,95.03
2022-12-18T01:36:23.165Z,109.47
2022-12-18T01:38:50.286Z,108.75
2022-12-18T01:41:19.746Z,119.80
2022-12-18T01:43:49.967Z,119.15
2022-12-18T01:46:18.566Z,117.80
2022-12-18T01:48:48.187Z,123.93
2022-12-18T01:51:15.499Z,114.60
2022-12-18T01:53:43.265Z,119.57
2022-12-18T01:56:15.386Z,110.07
2022-12-18T01:59:07.292Z,108.70
2022-12-18T02:04:26.381Z,91.85
2022-12-18T02:07:18.386Z,81.93
2022-12-18T02:12:20.893Z,89.70
2022-12-18T02:14:55.879Z,93.18
2022-12-18T02:17:26.053Z,94.80
2022-12-18T02:20:06.921Z,78.40
2022-12-18T02:22:41.933Z,87.13
2022-12-18T02:25:19.945Z,89.18
2022-12-18T02:27:48.183Z,82.75
2022-12-18T02:30:15.876Z,84.82
2022-12-18T02:32:46.262Z,87.32
2022-12-18T02:35:20.596Z,93.38
2022-12-18T02:37:51.165Z,88.53
2022-12-18T02:40:18.661Z,96.25
2022-12-18T02:42:45.822Z,92.65
2022-12-18T02:45:16.621Z,90.63
2022-12-18T02:47:46.761Z,83.13
2022-12-18T02:50:32.102Z,85.43
2022-12-18T02:53:15.413Z,85.88
2022-12-18T02:55:54.311Z,83.63
2022-12-18T02:58:35.694Z,81.90
2022-12-18T03:01:15.290Z,79.05
2022-12-18T03:04:07.413Z,87.28
2022-12-18T03:06:40.993Z,73.75
2022-12-18T03:09:11.415Z,74.50
2022-12-18T03:12:00.050Z,83.72
2022-12-18T03:14:28.318Z,77.47
2022-12-18T03:17:00.057Z,78.80
2022-12-18T03:19:29.132Z,60.17
2022-12-18T03:22:00.013Z,68.78
2022-12-18T03:24:29.414Z,81.70
2022-12-18T03:27:01.326Z,84.93
2022-12-18T03:29:34.363Z,70.93
2022-12-18T03:32:09.381Z,65.18
2022-12-18T03:34:40.359Z,64.75
2022-12-18T03:37:08.845Z,57.93
2022-12-18T03:39:37.794Z,61.00
2022-12-18T03:42:27.174Z,62.60
2022-12-18T03:45:25.782Z,59.72
2022-12-18T03:48:11.282Z,61.20
2022-12-18T03:51:08.266Z,62.72
2022-12-18T03:53:48.844Z,63.85
2022-12-18T03:56:17.689Z,49.70
2022-12-18T03:58:45.222Z,55.10
2022-12-18T04:01:29.783Z,58.80
2022-12-18T04:03:58.207Z,62.65
2022-12-18T04:06:25.166Z,53.95
2022-12-18T04:08:52.774Z,58.70
2022-12-18T04:11:22.654Z,61.13
2022-12-18T04:13:49.703Z,54.13
2022-12-18T04:16:22.995Z,51.50
2022-12-18T04:18:54.044Z,51.97
2022-12-18T04:21:23.709Z,51.10
2022-12-18T04:23:50.964Z,52.40
2022-12-18T04:26:21.313Z,51.38
2022-12-18T04:29:06.825Z,46.30
2022-12-18T04:31:34.404Z,44.08
2022-12-18T04:34:03.185Z,51.33
2022-12-18T04:36:36.122Z,41.42
2022-12-18T04:39:03.125Z,46.40
2022-12-18T04:41:31.499Z,46.53
2022-12-18T04:43:58.828Z,51.58
2022-12-18T04:46:26.042Z,50.85
2022-12-18T04:48:53.099Z,50.67
2022-12-18T04:51:26.162Z,49.67
2022-12-18T04:53:54.243Z,48.97
2022-12-18T04:56:21.395Z,51.38
2022-12-18T04:58:48.458Z,49.83
2022-12-18T05:01:17.079Z,46.58
2022-12-18T05:03:44.662Z,50.25
2022-12-18T05:06:12.476Z,44.25
2022-12-18T05:08:39.599Z,51.55
2022-12-18T05:11:09.541Z,43.35
2022-12-18T05:13:39.403Z,39.72
2022-12-18T05:16:07.482Z,48.08
2022-12-18T05:18:35.041Z,54.75
2022-12-18T05:21:02.209Z,49.72
2022-12-18T05:23:29.508Z,48.90
2022-12-18T05:25:59.139Z,43.83
2022-12-18T05:28:27.959Z,50.20
2022-12-18T05:30:59.485Z,47.47
2022-12-18T05:33:28.303Z,46.17
2022-12-18T05:35:57.002Z,43.42
2022-12-18T05:38:25.114Z,44.88
2022-12-18T05:40:53.120Z,45.17
2022-12-18T05:43:22.661Z,45.97
2022-12-18T05:45:50.507Z,44.88
2022-12-18T05:48:18.153Z,45.05
2022-12-18T05:50:47.058Z,49.20
2022-12-18T05:53:16.258Z,50.15
2022-12-18T05:55:44.517Z,44.50
2022-12-18T05:58:12.900Z,43.70
2022-12-18T06:00:42.905Z,46.30
2022-12-18T06:03:11.487Z,50.63
2022-12-18T06:05:43.943Z,59.88
2022-12-18T06:08:12.159Z,65.68
2022-12-18T06:10:39.147Z,57.10
2022-12-18T06:13:06.783Z,69.82
2022-12-18T06:15:34.280Z,66.30
2022-12-18T06:18:01.989Z,55.50
2022-12-18T06:20:33.695Z,56.67
2022-12-18T06:23:01.224Z,51.53
2022-12-18T06:25:28.289Z,48.85
2022-12-18T06:27:55.378Z,44.88
2022-12-18T06:30:22.616Z,50.70
2022-12-18T06:32:53.148Z,48.88
2022-12-18T06:35:23.875Z,46.97
2022-12-18T06:37:51.071Z,46.78
2022-12-18T06:40:18.243Z,56.33
2022-12-18T06:42:45.181Z,51.50
2022-12-18T06:45:12.661Z,55.60
2022-12-18T06:47:39.650Z,50.15
2022-12-18T06:50:07.201Z,51.05
2022-12-18T06:52:34.731Z,50.38
2022-12-18T06:55:01.826Z,44.00
2022-12-18T06:57:29.006Z,50.15
2022-12-18T06:59:55.977Z,54.10
2022-12-18T07:02:23.242Z,51.13
2022-12-18T07:04:51.955Z,50.00
2022-12-18T07:07:19.199Z,46.00
2022-12-18T07:09:46.263Z,57.13
2022-12-18T07:12:13.564Z,48.90
2022-12-18T07:14:40.886Z,46.08
2022-12-18T07:17:08.308Z,49.40
2022-12-18T07:19:35.552Z,47.78
2022-12-18T07:22:03.228Z,53.50
2022-12-18T07:24:32.151Z,52.22
2022-12-18T07:26:59.698Z,46.10
2022-12-18T07:29:27.053Z,55.03
2022-12-18T07:31:54.287Z,59.75
2022-12-18T07:34:21.634Z,57.10
2022-12-18T07:36:48.657Z,56.72
2022-12-18T07:39:15.830Z,62.67
2022-12-18T07:42:05.528Z,62.25
2022-12-18T07:44:33.581Z,56.00
2022-12-18T07:47:00.791Z,57.50
2022-12-18T07:49:27.800Z,67.50
2022-12-18T07:51:57.325Z,73.20
2022-12-18T07:54:25.409Z,77.20
2022-12-18T07:56:53.618Z,74.32
2022-12-18T07:59:20.605Z,77.78
2022-12-18T08:01:47.734Z,76.20
2022-12-18T08:04:14.878Z,70.10
2022-12-18T08:06:46.237Z,67.90
2022-12-18T08:09:15.297Z,76.95
2022-12-18T08:11:42.426Z,78.68
2022-12-18T08:14:09.607Z,76.80
2022-12-18T08:16:37.547Z,72.00
2022-12-18T08:19:04.737Z,74.53
2022-12-18T08:21:32.889Z,72.30
2022-12-18T08:24:01.344Z,65.10
2022-12-18T08:26:30.957Z,65.10
2022-12-18T08:28:59.775Z,65.35
2022-12-18T08:31:28.408Z,57.58
2022-12-18T08:33:55.773Z,64.35
2022-12-18T08:36:25.015Z,67.40
2022-12-18T08:38:53.666Z,67.60
2022-12-18T08:41:21.698Z,68.82
2022-12-18T08:44:09.007Z,63.47
2022-12-18T08:46:41.372Z,66.43
2022-12-18T08:49:09.085Z,63.60
2022-12-18T08:51:37.083Z,67.35
2022-12-18T08:54:05.164Z,56.75
2022-12-18T08:56:34.330Z,63.97
2022-12-18T08:59:01.404Z,58.03
2022-12-18T09:01:29.018Z,58.17
2022-12-18T09:03:56.080Z,62.10
2022-12-18T09:06:23.974Z,59.85
2022-12-18T09:08:51.083Z,59.63
2022-12-18T09:11:28.534Z,54.78
2022-12-18T09:13:56.825Z,63.22
2022-12-18T09:16:30.301Z,67.50
2022-12-18T09:19:03.223Z,31.40
2022-12-18T09:21:35.019Z,52.33
2022-12-18T09:24:04.578Z,85.75
2022-12-18T09:26:34.997Z,63.05
2022-12-18T09:29:01.878Z,67.10
2022-12-18T09:31:28.805Z,62.97
2022-12-18T09:33:57.629Z,59.42
2022-12-18T09:36:24.612Z,62.53
2022-12-18T09:38:52.129Z,60.22
2022-12-18T09:41:37.019Z,58.63
2022-12-18T09:44:11.154Z,62.00
2022-12-18T09:46:44.357Z,64.55
2022-12-18T09:49:16.015Z,68.57
2022-12-18T09:51:50.726Z,64.13
2022-12-18T09:54:39.023Z,58.97
2022-12-18T09:57:06.402Z,66.13
2022-12-18T09:59:36.960Z,65.68
2022-12-18T10:02:24.360Z,71.47
2022-12-18T10:05:13.676Z,66.25
2022-12-18T10:08:11.630Z,62.65
2022-12-18T10:10:48.457Z,70.15
2022-12-18T10:13:43.032Z,58.17
2022-12-18T10:16:14.849Z,63.40
2022-12-18T10:19:03.832Z,61.97
2022-12-18T10:21:45.708Z,55.72
2022-12-18T10:24:46.350Z,52.17
2022-12-18T10:27:18.709Z,55.40
2022-12-18T10:29:47.024Z,48.35
2022-12-18T10:32:25.969Z,45.15
2022-12-18T10:35:00.094Z,46.08
2022-12-18T10:37:29.925Z,46.25
2022-12-18T10:40:29.479Z,45.83
2022-12-18T10:43:15.629Z,41.13
2022-12-18T10:45:43.517Z,39.85
2022-12-18T10:48:23.056Z,37.28
2022-12-18T10:53:41.541Z,35.80
2022-12-18T10:56:08.666Z,32.28
2022-12-18T10:58:38.088Z,37.75
2022-12-18T11:01:12.323Z,39.83
2022-12-18T11:03:41.161Z,40.25
2022-12-18T11:06:13.731Z,38.17
2022-12-18T11:08:43.104Z,33.85
2022-12-18T11:11:24.200Z,37.35
2022-12-18T11:14:28.503Z,35.97
2022-12-18T11:19:43.584Z,39.88
2022-12-18T11:22:29.994Z,38.10
2022-12-18T11:25:32.689Z,38.25
2022-12-18T11:27:55.824Z,32.25
2022-12-18T11:30:26.798Z,33.90
2022-12-18T11:32:59.839Z,31.40
2022-12-18T11:35:45.351Z,28.05
2022-12-18T11:38:25.233Z,27.05
2022-12-18T11:41:13.899Z,31.88
2022-12-18T11:43:48.840Z,33.35
2022-12-18T11:46:20.391Z,31.02
2022-12-18T11:49:00.085Z,33.55
2022-12-18T11:51:37.249Z,30.77
2022-12-18T11:54:14.131Z,27.50
2022-12-18T11:56:47.724Z,30.42
2022-12-18T11:59:33.791Z,37.38
2022-12-18T12:02:19.083Z,32.22
2022-12-18T12:05:10.294Z,29.20
2022-12-18T12:08:01.547Z,26.37
2022-12-18T12:10:52.908Z,33.17
2022-12-18T12:13:29.503Z,22.98
2022-12-18T12:16:12.518Z,26.42
2022-12-18T12:19:02.467Z,22.70
2022-12-18T12:21:48.179Z,20.20
2022-12-18T12:24:30.631Z,18.40
2022-12-18T12:27:06.725Z,19.13
2022-12-18T12:29:53.094Z,20.08
2022-12-18T12:32:35.198Z,19.30
2022-12-18T12:35:39.915Z,22.80
2022-12-18T12:38:12.140Z,28.15
2022-12-18T12:41:02.124Z,30.70
2022-12-18T12:43:50.638Z,27.98
2022-12-18T12:46:22.151Z,27.88
2022-12-18T12:49:05.097Z,22.02
2022-12-18T12:51:41.255Z,23.58
2022-12-18T12:54:22.428Z,20.17
2022-12-18T12:56:57.607Z,15.45
2022-12-18T12:59:43.000Z,21.52
2022-12-18T13:02:22.278Z,27.00
2022-12-18T13:05:08.137Z,32.78
2022-12-18T13:08:07.031Z,29.92
2022-12-18T13:11:15.048Z,47.85
2022-12-18T13:13:54.950Z,38.95
2022-12-18T13:16:25.469Z,32.90
2022-12-18T13:18:58.969Z,45.20
2022-12-18T13:21:29.954Z,30.83
2022-12-18T13:23:58.533Z,31.40
2022-12-18T13:29:41.498Z,28.25
2022-12-18T13:32:24.796Z,31.55
2022-12-18T13:38:36.023Z,24.65
2022-12-18T13:41:21.965Z,21.65
2022-12-18T13:43:54.242Z,22.80
2022-12-18T13:46:44.424Z,25.20
2022-12-18T13:49:14.890Z,27.33
2022-12-18T13:51:53.290Z,30.85
2022-12-18T13:54:29.478Z,26.55
2022-12-18T13:56:56.771Z,31.55
2022-12-18T13:59:37.198Z,25.80
2022-12-18T14:02:17.765Z,30.25
2022-12-18T14:04:49.256Z,32.15
2022-12-18T14:09:52.315Z,28.88
2022-12-18T14:12:45.605Z,30.55
2022-12-18T14:15:28.231Z,29.95
2022-12-18T14:18:01.093Z,36.33
2022-12-18T14:20:33.310Z,34.83
2022-12-18T14:23:01.663Z,31.13
2022-12-18T14:25:31.254Z,24.08
2022-12-18T14:28:15.134Z,22.80
2022-12-18T14:30:47.237Z,20.95
2022-12-18T14:33:19.650Z,33.92
2022-12-18T14:36:06.406Z,33.35
2022-12-18T14:38:41.253Z,33.22
2022-12-18T14:41:13.673Z,27.13
2022-12-18T14:43:46.806Z,22.10
2022-12-18T14:46:35.444Z,30.63
2022-12-18T14:49:21.089Z,20.42
2022-12-18T14:51:54.892Z,26.55
2022-12-18T14:54:24.052Z,48.65
2022-12-18T14:56:56.456Z,24.67
2022-12-18T14:59:25.313Z,30.98
2022-12-18T15:02:17.618Z,30.85
2022-12-18T15:04:45.286Z,31.48
2022-12-18T15:07:12.244Z,33.13
2022-12-18T15:09:41.766Z,35.83
2022-12-18T15:12:30.334Z,33.53
2022-12-18T15:14:59.156Z,30.70
2022-12-18T15:17:26.684Z,32.95
2022-12-18T15:20:03.354Z,28.77
2022-12-18T15:22:34.215Z,27.20
2022-12-18T15:25:01.775Z,26.80
2022-12-18T15:27:36.987Z,28.85
2022-12-18T15:30:10.144Z,32.75
2022-12-18T15:32:38.575Z,36.90
2022-12-18T15:35:17.364Z,40.13
2022-12-18T15:37:45.283Z,41.03
2022-12-18T15:40:21.126Z,39.63
2022-12-18T15:43:07.210Z,39.28
2022-12-18T15:45:34.269Z,41.97
2022-12-18T15:48:01.441Z,36.90
2022-12-18T15:50:28.745Z,41.67
2022-12-18T15:52:56.584Z,38.10
2022-12-18T15:55:43.571Z,38.70
2022-12-18T15:58:12.256Z,40.55
2022-12-18T16:00:40.849Z,34.83
2022-12-18T16:03:08.547Z,36.22
2022-12-18T16:05:35.968Z,39.00
2022-12-18T16:08:03.248Z,38.00
2022-12-18T16:10:30.475Z,41.97
2022-12-18T16:12:57.573Z,37.42
2022-12-18T16:15:25.162Z,37.05
2022-12-18T16:17:52.970Z,43.80
2022-12-18T16:20:23.730Z,39.17
2022-12-18T16:22:51.139Z,31.27
2022-12-18T16:25:23.454Z,37.72
2022-12-18T16:27:50.931Z,42.42
2022-12-18T16:30:25.152Z,46.25
2022-12-18T16:32:53.504Z,42.35
2022-12-18T16:35:20.683Z,47.35
2022-12-18T16:37:47.826Z,48.05
2022-12-18T16:40:16.930Z,44.92
2022-12-18T16:42:45.765Z,47.33
2022-12-18T16:45:15.976Z,45.50
2022-12-18T16:47:43.183Z,47.55
2022-12-18T16:50:11.030Z,48.22
2022-12-18T16:52:38.668Z,55.10
2022-12-18T16:55:06.382Z,44.40
2022-12-18T16:57:33.753Z,44.03
2022-12-18T17:00:05.026Z,45.20
2022-12-18T17:02:33.331Z,44.22
2022-12-18T17:05:02.685Z,43.40
2022-12-18T17:07:29.912Z,44.38
2022-12-18T17:09:57.656Z,53.83
2022-12-18T17:12:25.275Z,48.28
2022-12-18T17:14:52.441Z,51.33
2022-12-18T17:17:21.848Z,45.33
2022-12-18T17:19:50.610Z,47.20
2022-12-18T17:22:17.648Z,43.75
2022-12-18T17:24:44.684Z,50.47
2022-12-18T17:27:11.888Z,52.10
2022-12-18T17:29:43.928Z,55.50
2022-12-18T17:32:13.758Z,54.97
2022-12-18T17:34:41.069Z,68.13
2022-12-18T17:37:08.498Z,51.65
2022-12-18T17:39:35.793Z,48.90
2022-12-18T17:42:02.816Z,48.95
2022-12-18T17:44:30.000Z,51.10
2022-12-18T17:47:01.167Z,48.20
2022-12-18T17:49:29.624Z,46.80
2022-12-18T17:51:56.662Z,48.33
2022-12-18T17:54:23.714Z,41.13
2022-12-18T17:56:50.759Z,39.88
2022-12-18T17:59:17.891Z,44.15
2022-12-18T18:02:03.569Z,42.83
2022-12-18T18:04:37.847Z,41.72
2022-12-18T18:07:05.094Z,49.50
2022-12-18T18:09:32.528Z,38.40
2022-12-18T18:12:18.256Z,51.25
2022-12-18T18:14:45.522Z,44.58
2022-12-18T18:17:12.942Z,50.08
2022-12-18T18:19:40.106Z,54.88
2022-12-18T18:22:07.605Z,55.55
2022-12-18T18:24:35.158Z,52.55
2022-12-18T18:27:02.255Z,46.33
2022-12-18T18:29:32.946Z,48.83
2022-12-18T18:32:00.344Z,40.03
2022-12-18T18:34:30.300Z,54.70
2022-12-18T18:36:57.453Z,54.08
2022-12-18T18:39:24.952Z,57.08
2022-12-18T18:41:52.325Z,48.78
2022-12-18T18:44:25.918Z,50.97
2022-12-18T18:46:55.391Z,61.20
2022-12-18T18:49:28.296Z,58.70
2022-12-18T18:51:56.858Z,50.85
2022-12-18T18:54:24.976Z,51.13
2022-12-18T18:59:39.238Z,57.72
2022-12-18T19:02:06.680Z,61.92
2022-12-18T19:04:34.392Z,52.88
2022-12-18T19:07:01.611Z,61.35
2022-12-18T19:09:28.937Z,59.35
2022-12-18T19:12:14.727Z,65.45
2022-12-18T19:14:42.201Z,67.57
2022-12-18T19:17:10.420Z,56.90
2022-12-18T19:19:37.510Z,59.70
2022-12-18T19:22:09.927Z,62.28
2022-12-18T19:24:37.476Z,60.17
2022-12-18T19:27:05.478Z,39.50
2022-12-18T19:29:32.637Z,60.78
2022-12-18T19:32:00.897Z,62.85
2022-12-18T19:34:29.237Z,61.20
2022-12-18T19:36:59.928Z,59.35
2022-12-18T19:39:30.926Z,58.03
2022-12-18T19:42:00.106Z,60.38
2022-12-18T19:44:30.851Z,52.65
2022-12-18T19:47:03.646Z,54.78
2022-12-18T19:49:36.424Z,63.08
2022-12-18T19:52:03.370Z,69.85
2022-12-18T19:58:10.521Z,65.88
2022-12-18T20:00:39.451Z,63.88
2022-12-18T20:03:25.259Z,69.28
2022-12-18T20:06:08.305Z,68.07
2022-12-18T20:08:36.545Z,58.95
2022-12-18T20:11:06.409Z,69.72
2022-12-18T20:13:36.609Z,66.93
2022-12-18T20:16:07.646Z,74.55
2022-12-18T20:18:40.179Z,64.07
2022-12-18T20:21:13.677Z,59.20
2022-12-18T20:23:44.902Z,74.13
2022-12-18T20:26:15.767Z,64.10
2022-12-18T20:28:43.800Z,64.75
2022-12-18T20:31:13.751Z,73.57
2022-12-18T20:33:42.912Z,68.32
2022-12-18T20:36:15.725Z,60.47
2022-12-18T20:38:44.299Z,67.75
2022-12-18T20:41:17.736Z,66.32
2022-12-18T20:43:46.043Z,68.32
2022-12-18T20:46:17.028Z,62.80
2022-12-18T20:48:45.353Z,74.75
2022-12-18T20:51:16.868Z,71.50
2022-12-18T20:53:44.802Z,70.93
2022-12-18T20:56:20.161Z,70.03
2022-12-18T20:58:49.999Z,75.70
2022-12-18T21:01:19.971Z,77.47
2022-12-18T21:03:47.935Z,68.43
2022-12-18T21:06:16.834Z,76.35
2022-12-18T21:08:44.451Z,71.97
2022-12-18T21:11:50.276Z,66.82
2022-12-18T21:14:21.534Z,71.82
2022-12-18T21:16:49.541Z,74.63
2022-12-18T21:19:23.734Z,74.50
2022-12-18T21:21:52.098Z,76.13
2022-12-18T21:24:20.003Z,70.47
2022-12-18T21:26:48.022Z,72.18
2022-12-18T21:29:33.465Z,72.65
2022-12-18T21:32:00.862Z,70.07
2022-12-18T21:34:30.276Z,65.47
2022-12-18T21:36:58.969Z,75.57
2022-12-18T21:39:26.975Z,69.65
2022-12-18T21:42:12.512Z,82.38
2022-12-18T21:44:41.446Z,66.97
2022-12-18T21:47:22.747Z,73.00
2022-12-18T21:49:54.017Z,73.53
2022-12-18T21:52:31.512Z,72.47
2022-12-18T21:55:07.871Z,69.20
2022-12-18T21:57:37.250Z,68.20
2022-12-18T22:00:06.567Z,65.72
2022-12-18T22:02:39.333Z,67.18
2022-12-18T22:05:07.252Z,66.10
2022-12-18T22:07:34.489Z,67.18
2022-12-18T22:10:01.980Z,65.47
2022-12-18T22:12:39.775Z,65.63
2022-12-18T22:17:39.464Z,60.63
2022-12-18T22:20:08.084Z,64.32
2022-12-18T22:22:35.507Z,63.97
2022-12-18T22:25:02.571Z,71.18
2022-12-18T22:27:29.696Z,64.43
2022-12-18T22:30:08.759Z,72.25
2022-12-18T22:32:36.372Z,73.88
2022-12-18T22:35:10.432Z,66.97
2022-12-18T22:37:41.304Z,71.97
2022-12-18T22:40:13.293Z,72.00
2022-12-18T22:42:41.178Z,80.47
2022-12-18T22:45:08.739Z,75.15
2022-12-18T22:47:35.701Z,76.60
2022-12-18T22:50:02.694Z,73.90
2022-12-18T22:52:29.692Z,71.68
2022-12-18T22:54:56.660Z,79.18
2022-12-18T22:57:23.953Z,76.15
2022-12-18T22:59:51.626Z,71.18
2022-12-18T23:02:19.750Z,73.68
2022-12-18T23:04:47.922Z,83.20
2022-12-18T23:07:16.002Z,68.88
2022-12-18T23:09:43.134Z,77.80
2022-12-18T23:12:19.302Z,82.38
2022-12-18T23:14:47.454Z,77.43
2022-12-18T23:17:14.426Z,79.05
2022-12-18T23:19:47.198Z,79.28
2022-12-18T23:22:15.995Z,79.90
2022-12-18T23:24:42.991Z,84.03
2022-12-18T23:29:40.102Z,79.25
2022-12-18T23:32:07.210Z,79.68
2022-12-18T23:34:34.210Z,80.13
2022-12-18T23:37:01.294Z,85.47
2022-12-18T23:39:30.088Z,80.63
2022-12-18T23:41:58.525Z,84.10
2022-12-18T23:44:25.766Z,83.97
2022-12-18T23:46:52.873Z,81.95
2022-12-18T23:49:20.022Z,79.70
2022-12-18T23:51:46.904Z,83.95
2022-12-18T23:54:13.864Z,82.95
2022-12-18T23:56:40.908Z,82.28
2022-12-18T23:59:07.919Z,80.88
